Beirut, Lebanon

5:53 AM EET on January 30, 2015 (GMT +0200)
Beirut International | Change Station
CLOSE
Current Station
Airport
Location: Beirut,
Elevation: 62 ft
Nearby Weather Stations

Elev 62 ft 33.82 °N, 35.49 °E | Updated 53 minutes ago

Mostly Cloudy
Mostly Cloudy
59 °F
Feels Like 59 °F
N
10
Wind Variable Wind from SSE

Today
High -- | Low -- °F
--% Chance of Precip.
Yesterday
High -- | Low -- °F
Precip. -- in
6:36 AM 5:06 PM
Waxing Gibbous, 79% visible
Pressure 29.92 in
Visibility 4.3 miles
Clouds Mostly Cloudy 2300 ft
Dew Point 37 °F
Humidity 45%
Rainfall 0.00 in
Snow Depth Not available.
UV 0 out of 12
Pollen Not available.
Air Quality Not available.
Flu Activity Not available.
METAR OLBA 300300Z 15009KT 7000 BKN023 15/03 Q1013

More Conditions Fewer Conditions

Pressure 29.92 in
Visibility 4.3 miles
Clouds Mostly Cloudy 2300 ft
Dew Point 37 °F
Humidity 45%
Rainfall 0.00 in
Snow Depth Not available.
UV 0 out of 12
Pollen Not available.
Air Quality Not available.
Flu Activity Not available.
METAR OLBA 300300Z 15009KT 7000 BKN023 15/03 Q1013

More Conditions Fewer Conditions

10-Day Weather Forecast

Almanac

Astronomy

Jan. 30, 2015 Rise Set
Actual Time
Civil Twilight
Nautical Twilight
Astronomical Twilight
Moon
Length of Visible Light
Length of Day
Tomorrow will be .
, % of the Moon is Illuminated

Today's Extremes

Country Highs Country Lows

Community

WunderPhotos

Upload Photos

1,791,702 photos uploaded!

WunderBlogs® & News

Nearby

Air Quality

  Air Quality AQ Index Pollutant
Not available.

Snow Depth

Station Depth Elevation

Earthquake Activity

City Distance Mag. Time & Date
Minimum magnitude displayed is 2.5.

Coastal Water Temperatures

Place Temperature

Nearby Weather Stations